createdAt,value
2023-12-14T00:00:54.174Z,11.75
2023-12-14T00:03:21.102Z,10.68
2023-12-14T00:05:48.061Z,11.63
2023-12-14T00:08:15.009Z,12.40
2023-12-14T00:10:41.984Z,11.07
2023-12-14T00:13:09.001Z,11.40
2023-12-14T00:15:36.179Z,12.05
2023-12-14T00:18:03.338Z,12.20
2023-12-14T00:20:30.300Z,12.65
2023-12-14T00:22:57.329Z,12.75
2023-12-14T00:25:24.240Z,12.80
2023-12-14T00:27:51.195Z,12.60
2023-12-14T00:30:18.253Z,13.07
2023-12-14T00:32:45.207Z,13.05
2023-12-14T00:35:12.232Z,12.15
2023-12-14T00:37:39.334Z,11.90
2023-12-14T00:40:06.878Z,12.60
2023-12-14T00:42:34.160Z,12.10
2023-12-14T00:45:01.191Z,11.23
2023-12-14T00:47:28.134Z,11.88
2023-12-14T00:49:55.041Z,11.13
2023-12-14T00:52:22.269Z,11.18
2023-12-14T00:54:49.236Z,11.55
2023-12-14T00:57:16.191Z,11.80
2023-12-14T00:59:43.233Z,12.02
2023-12-14T01:02:10.203Z,11.02
2023-12-14T01:04:37.117Z,11.73
2023-12-14T01:07:05.285Z,10.93
2023-12-14T01:09:32.281Z,11.40
2023-12-14T01:11:59.134Z,11.07
2023-12-14T01:14:26.132Z,11.32
2023-12-14T01:16:53.339Z,11.32
2023-12-14T01:19:20.329Z,11.57
2023-12-14T01:21:47.252Z,11.57
2023-12-14T01:24:14.242Z,11.75
2023-12-14T01:26:41.385Z,12.02
2023-12-14T01:29:08.882Z,10.63
2023-12-14T01:31:35.929Z,11.07
2023-12-14T01:34:02.839Z,11.63
2023-12-14T01:36:29.890Z,11.77
2023-12-14T01:38:56.774Z,11.52
2023-12-14T01:41:23.775Z,12.20
2023-12-14T01:43:50.752Z,11.45
2023-12-14T01:46:17.847Z,11.45
2023-12-14T01:48:45.223Z,10.50
2023-12-14T01:51:12.146Z,11.95
2023-12-14T01:53:39.242Z,10.93
2023-12-14T01:56:06.532Z,11.18
2023-12-14T01:58:33.458Z,11.65
2023-12-14T02:01:13.919Z,11.15
2023-12-14T02:03:53.873Z,12.02
2023-12-14T02:06:21.155Z,10.73
2023-12-14T02:08:48.037Z,10.73
2023-12-14T02:11:15.379Z,10.85
2023-12-14T02:13:42.467Z,11.48
2023-12-14T02:16:10.864Z,10.77
2023-12-14T02:18:38.897Z,12.07
2023-12-14T02:21:05.934Z,11.25
2023-12-14T02:23:32.806Z,11.75
2023-12-14T02:25:59.779Z,11.50
2023-12-14T02:28:26.800Z,11.07
2023-12-14T02:30:53.805Z,11.48
2023-12-14T02:33:20.617Z,11.52
2023-12-14T02:35:47.462Z,11.15
2023-12-14T02:38:14.463Z,10.35
2023-12-14T02:40:41.483Z,10.55
2023-12-14T02:43:08.330Z,11.45
2023-12-14T02:45:37.981Z,11.35
2023-12-14T02:48:11.187Z,10.45
2023-12-14T02:50:38.074Z,10.32
2023-12-14T02:53:05.126Z,10.63
2023-12-14T02:55:32.222Z,10.60
2023-12-14T02:57:59.217Z,11.20
2023-12-14T03:00:26.474Z,10.95
2023-12-14T03:02:54.114Z,11.50
2023-12-14T03:05:21.243Z,10.82
2023-12-14T03:07:48.107Z,11.45
2023-12-14T03:10:15.329Z,10.55
2023-12-14T03:12:42.204Z,11.07
2023-12-14T03:15:09.410Z,11.05
2023-12-14T03:17:36.328Z,11.32
2023-12-14T03:20:04.837Z,11.57
2023-12-14T03:22:31.984Z,11.25
2023-12-14T03:24:58.924Z,11.27
2023-12-14T03:27:25.874Z,11.15
2023-12-14T03:29:54.207Z,11.70
2023-12-14T03:32:21.196Z,11.35
2023-12-14T03:34:48.134Z,10.85
2023-12-14T03:37:15.093Z,10.85
2023-12-14T03:39:41.926Z,11.20
2023-12-14T03:42:08.800Z,11.18
2023-12-14T03:44:35.671Z,11.13
2023-12-14T03:47:02.667Z,11.70
2023-12-14T03:49:29.667Z,11.27
2023-12-14T03:51:56.758Z,11.48
2023-12-14T03:54:23.705Z,12.45
2023-12-14T03:56:50.513Z,12.02
2023-12-14T03:59:17.513Z,12.30
2023-12-14T04:01:44.413Z,11.90
2023-12-14T04:04:11.325Z,11.63
2023-12-14T04:06:38.166Z,12.00
2023-12-14T04:09:05.077Z,12.50
2023-12-14T04:11:32.003Z,12.05
2023-12-14T04:13:59.782Z,11.90
2023-12-14T04:16:26.778Z,13.10
2023-12-14T04:18:57.470Z,11.95
2023-12-14T04:21:24.427Z,12.73
2023-12-14T04:23:51.223Z,12.68
2023-12-14T04:26:18.221Z,12.20
2023-12-14T04:28:47.349Z,11.82
2023-12-14T04:31:14.432Z,11.27
2023-12-14T04:33:41.557Z,11.55
2023-12-14T04:36:08.801Z,11.32
2023-12-14T04:38:35.729Z,10.93
2023-12-14T04:41:02.775Z,10.65
2023-12-14T04:43:33.571Z,11.50
2023-12-14T04:46:00.644Z,10.45
2023-12-14T04:48:27.604Z,10.98
2023-12-14T04:50:54.487Z,10.15
2023-12-14T04:53:21.461Z,10.20
2023-12-14T04:55:48.575Z,9.50
2023-12-14T04:58:15.440Z,10.40
2023-12-14T05:00:42.445Z,10.70
2023-12-14T05:03:09.881Z,10.57
2023-12-14T05:05:36.858Z,10.43
2023-12-14T05:08:03.836Z,10.50
2023-12-14T05:10:31.523Z,9.73
2023-12-14T05:12:59.294Z,9.90
2023-12-14T05:15:26.412Z,9.23
2023-12-14T05:17:53.412Z,9.43
2023-12-14T05:20:21.835Z,10.27
2023-12-14T05:22:48.884Z,8.90
2023-12-14T05:25:15.982Z,8.77
2023-12-14T05:27:43.205Z,9.10
2023-12-14T05:30:10.498Z,8.88
2023-12-14T05:32:37.631Z,9.05
2023-12-14T05:35:05.233Z,9.15
2023-12-14T05:37:32.325Z,9.10
2023-12-14T05:39:59.610Z,9.52
2023-12-14T05:42:26.489Z,8.35
2023-12-14T05:44:53.415Z,8.07
2023-12-14T05:47:20.440Z,8.55
2023-12-14T05:49:47.488Z,8.45
2023-12-14T05:52:14.496Z,8.57
2023-12-14T05:54:41.467Z,8.20
2023-12-14T05:57:08.342Z,8.30
2023-12-14T05:59:36.249Z,8.10
2023-12-14T06:02:03.513Z,8.30
2023-12-14T06:04:31.072Z,8.82
2023-12-14T06:06:57.975Z,8.82
2023-12-14T06:09:30.651Z,7.90
2023-12-14T06:14:26.745Z,8.38
2023-12-14T06:16:53.888Z,7.70
2023-12-14T06:19:21.519Z,7.82
2023-12-14T06:21:51.493Z,6.82
2023-12-14T06:24:18.502Z,7.47
2023-12-14T06:26:46.863Z,7.18
2023-12-14T06:29:13.923Z,7.47
2023-12-14T06:31:42.379Z,7.05
2023-12-14T06:34:11.900Z,6.97
2023-12-14T06:36:43.683Z,7.65
2023-12-14T06:39:11.642Z,7.20
2023-12-14T06:41:39.022Z,6.90
2023-12-14T06:44:06.303Z,6.50
2023-12-14T06:46:33.358Z,6.72
2023-12-14T06:49:00.443Z,6.45
2023-12-14T06:51:27.401Z,7.82
2023-12-14T06:53:54.255Z,7.00
2023-12-14T06:56:21.379Z,7.22
2023-12-14T06:58:50.518Z,7.22
2023-12-14T07:01:20.769Z,7.43
2023-12-14T07:03:49.767Z,6.53
2023-12-14T07:06:18.615Z,6.63
2023-12-14T07:08:46.021Z,6.93
2023-12-14T07:11:13.998Z,7.35
2023-12-14T07:13:41.279Z,7.30
2023-12-14T07:16:10.415Z,7.15
2023-12-14T07:18:38.790Z,7.68
2023-12-14T07:21:06.857Z,7.25
2023-12-14T07:23:34.704Z,7.10
2023-12-14T07:26:03.109Z,7.20
2023-12-14T07:28:31.349Z,7.50
2023-12-14T07:30:58.399Z,6.82
2023-12-14T07:33:25.804Z,7.50
2023-12-14T07:35:52.769Z,6.85
2023-12-14T07:38:19.677Z,6.88
2023-12-14T07:40:47.962Z,7.00
2023-12-14T07:43:15.033Z,7.30
2023-12-14T07:45:42.082Z,7.10
2023-12-14T07:48:10.756Z,6.85
2023-12-14T07:50:37.668Z,6.50
2023-12-14T07:53:05.370Z,7.22
2023-12-14T07:55:32.727Z,7.10
2023-12-14T07:57:59.686Z,6.32
2023-12-14T08:00:26.668Z,6.75
2023-12-14T08:02:53.625Z,6.80
2023-12-14T08:05:20.787Z,7.03
2023-12-14T08:07:49.235Z,6.53
2023-12-14T08:10:16.191Z,6.43
2023-12-14T08:12:43.387Z,7.25
2023-12-14T08:15:10.672Z,7.15
2023-12-14T08:17:37.919Z,6.88
2023-12-14T08:20:10.468Z,6.97
2023-12-14T08:22:37.612Z,6.72
2023-12-14T08:25:04.988Z,6.85
2023-12-14T08:27:31.814Z,7.60
2023-12-14T08:29:58.608Z,7.30
2023-12-14T08:32:25.613Z,7.10
2023-12-14T08:34:54.199Z,6.82
2023-12-14T08:37:21.455Z,6.82
2023-12-14T08:39:48.465Z,7.90
2023-12-14T08:42:15.376Z,6.93
2023-12-14T08:44:42.312Z,7.43
2023-12-14T08:47:10.397Z,7.55
2023-12-14T08:49:37.469Z,7.65
2023-12-14T08:52:05.466Z,7.43
2023-12-14T08:54:32.478Z,7.95
2023-12-14T08:56:59.766Z,7.57
2023-12-14T08:59:26.722Z,7.60
2023-12-14T09:01:54.143Z,7.45
2023-12-14T09:04:22.137Z,7.45
2023-12-14T09:06:49.302Z,7.93
2023-12-14T09:09:16.332Z,8.13
2023-12-14T09:11:43.161Z,7.53
2023-12-14T09:14:10.059Z,7.40
2023-12-14T09:16:38.021Z,6.65
2023-12-14T09:19:05.394Z,7.75
2023-12-14T09:21:40.561Z,7.53
2023-12-14T09:24:13.662Z,8.00
2023-12-14T09:26:41.339Z,8.15
2023-12-14T09:29:08.618Z,8.00
2023-12-14T09:31:36.678Z,7.97
2023-12-14T09:34:04.446Z,8.00
2023-12-14T09:36:31.413Z,7.75
2023-12-14T09:38:58.219Z,7.88
2023-12-14T09:41:25.080Z,8.23
2023-12-14T09:43:53.620Z,7.63
2023-12-14T09:46:23.122Z,7.43
2023-12-14T09:48:51.987Z,7.80
2023-12-14T09:51:19.188Z,8.00
2023-12-14T09:53:46.275Z,7.63
2023-12-14T09:56:13.206Z,7.55
2023-12-14T09:58:40.128Z,7.00
2023-12-14T10:01:23.366Z,8.00
2023-12-14T10:03:50.271Z,7.57
2023-12-14T10:06:18.908Z,7.03
2023-12-14T10:08:57.086Z,7.93
2023-12-14T10:11:24.041Z,7.65
2023-12-14T10:13:51.074Z,6.82
2023-12-14T10:16:34.642Z,8.30
2023-12-14T10:19:02.207Z,8.07
2023-12-14T10:21:30.073Z,8.02
2023-12-14T10:23:57.871Z,7.65
2023-12-14T10:26:30.038Z,7.68
2023-12-14T10:28:56.938Z,7.53
2023-12-14T10:31:25.383Z,7.22
2023-12-14T10:33:52.272Z,7.93
2023-12-14T10:36:25.697Z,7.75
2023-12-14T10:38:58.853Z,8.38
2023-12-14T10:41:26.237Z,7.50
2023-12-14T10:44:17.957Z,7.20
2023-12-14T10:46:49.569Z,6.82
2023-12-14T10:49:17.222Z,7.10
2023-12-14T10:51:46.523Z,6.68
2023-12-14T10:54:16.880Z,7.35
2023-12-14T10:56:43.835Z,7.18
2023-12-14T10:59:10.710Z,6.63
2023-12-14T11:01:40.612Z,6.35
2023-12-14T11:04:14.285Z,7.15
2023-12-14T11:06:41.582Z,6.90
2023-12-14T11:09:11.569Z,6.05
2023-12-14T11:11:58.406Z,7.10
2023-12-14T11:14:26.114Z,7.05
2023-12-14T11:17:07.401Z,6.70
2023-12-14T11:19:34.670Z,7.25
2023-12-14T11:22:13.602Z,6.85
2023-12-14T11:24:52.942Z,6.97
2023-12-14T11:27:29.282Z,6.57
2023-12-14T11:29:57.046Z,5.75
2023-12-14T11:32:26.048Z,6.28
2023-12-14T11:34:53.347Z,6.30
2023-12-14T11:37:21.527Z,5.88
2023-12-14T11:39:52.151Z,6.78
2023-12-14T11:42:19.682Z,6.63
2023-12-14T11:44:46.785Z,6.30
2023-12-14T11:47:13.811Z,6.03
2023-12-14T11:49:40.713Z,6.18
2023-12-14T11:52:07.749Z,6.43
2023-12-14T11:54:35.283Z,14.75
2023-12-14T11:57:04.211Z,6.50
2023-12-14T11:59:33.487Z,5.78
2023-12-14T12:02:02.488Z,5.65
2023-12-14T12:04:29.824Z,6.18
2023-12-14T12:07:05.049Z,6.13
2023-12-14T12:09:41.973Z,6.10
2023-12-14T12:12:13.798Z,6.25
2023-12-14T12:14:41.421Z,5.90
2023-12-14T12:17:08.531Z,6.07
2023-12-14T12:19:36.875Z,6.18
2023-12-14T12:22:04.717Z,6.55
2023-12-14T12:24:34.447Z,6.30
2023-12-14T12:27:01.973Z,5.43
2023-12-14T12:29:29.416Z,5.40
2023-12-14T12:31:56.496Z,5.80
2023-12-14T12:34:23.650Z,5.78
2023-12-14T12:36:50.742Z,5.43
2023-12-14T12:39:18.056Z,5.55
2023-12-14T12:41:44.984Z,5.75
2023-12-14T12:44:11.844Z,5.40
2023-12-14T12:46:39.723Z,5.60
2023-12-14T12:49:06.639Z,6.15
2023-12-14T12:51:34.106Z,5.93
2023-12-14T12:54:10.078Z,5.90
2023-12-14T12:56:40.959Z,6.18
2023-12-14T12:59:10.038Z,6.15
2023-12-14T13:01:38.215Z,5.75
2023-12-14T13:04:06.081Z,6.10
2023-12-14T13:06:32.951Z,6.00
2023-12-14T13:08:59.818Z,4.93
2023-12-14T13:11:26.925Z,5.22
2023-12-14T13:13:54.001Z,5.72
2023-12-14T13:16:20.937Z,5.32
2023-12-14T13:18:47.969Z,4.65
2023-12-14T13:21:14.988Z,4.57
2023-12-14T13:23:42.270Z,4.13
2023-12-14T13:26:09.681Z,4.63
2023-12-14T13:28:36.940Z,4.57
2023-12-14T13:31:04.439Z,4.85
2023-12-14T13:33:31.899Z,4.55
2023-12-14T13:35:58.840Z,4.20
2023-12-14T13:38:26.212Z,4.13
2023-12-14T13:40:53.496Z,4.38
2023-12-14T13:43:20.520Z,3.70
2023-12-14T13:45:53.025Z,4.40
2023-12-14T13:48:26.002Z,4.93
2023-12-14T13:50:56.951Z,4.70
2023-12-14T13:53:24.548Z,4.55
2023-12-14T13:55:51.735Z,4.10
2023-12-14T13:58:19.079Z,4.20
2023-12-14T14:00:48.968Z,4.68
2023-12-14T14:03:15.837Z,4.57
2023-12-14T14:05:45.315Z,5.38
2023-12-14T14:08:17.566Z,5.10
2023-12-14T14:10:45.715Z,5.47
2023-12-14T14:13:12.576Z,4.93
2023-12-14T14:15:39.476Z,5.45
2023-12-14T14:18:06.596Z,5.40
2023-12-14T14:20:34.207Z,6.00
2023-12-14T14:23:01.413Z,6.60
2023-12-14T14:25:28.664Z,6.15
2023-12-14T14:27:58.834Z,6.40
2023-12-14T14:30:26.226Z,7.22
2023-12-14T14:32:53.256Z,6.63
2023-12-14T14:35:22.031Z,6.28
2023-12-14T14:37:49.142Z,6.97
2023-12-14T14:40:16.517Z,6.50
2023-12-14T14:42:44.500Z,7.03
2023-12-14T14:45:14.847Z,7.70
2023-12-14T14:47:43.787Z,7.25
2023-12-14T14:50:10.989Z,8.27
2023-12-14T14:52:38.472Z,8.43
2023-12-14T14:55:05.992Z,9.65
2023-12-14T14:57:34.630Z,9.93
2023-12-14T15:00:01.612Z,8.70
2023-12-14T15:02:28.615Z,10.45
2023-12-14T15:04:55.626Z,9.55
2023-12-14T15:07:22.544Z,10.90
2023-12-14T15:09:49.838Z,9.80
2023-12-14T15:12:16.802Z,9.45
2023-12-14T15:14:44.874Z,10.75
2023-12-14T15:17:13.819Z,9.85
2023-12-14T15:19:40.887Z,9.95
2023-12-14T15:22:07.827Z,8.65
2023-12-14T15:24:34.776Z,9.00
2023-12-14T15:27:03.006Z,9.02
2023-12-14T15:29:29.983Z,8.98
2023-12-14T15:31:56.989Z,9.40
2023-12-14T15:34:23.882Z,9.05
2023-12-14T15:36:50.808Z,8.18
2023-12-14T15:39:18.492Z,8.60
2023-12-14T15:41:45.322Z,8.70
2023-12-14T15:44:12.332Z,8.98
2023-12-14T15:46:39.207Z,9.45
2023-12-14T15:49:06.751Z,9.15
2023-12-14T15:51:34.169Z,9.82
2023-12-14T15:54:01.096Z,9.95
2023-12-14T15:58:58.362Z,10.75
2023-12-14T16:01:25.312Z,11.07
2023-12-14T16:03:52.245Z,9.77
2023-12-14T16:06:20.670Z,9.65
2023-12-14T16:08:47.854Z,10.18
2023-12-14T16:11:15.113Z,10.60
2023-12-14T16:13:42.238Z,11.48
2023-12-14T16:16:11.093Z,10.93
2023-12-14T16:18:38.084Z,10.15
2023-12-14T16:21:06.672Z,11.32
2023-12-14T16:23:33.633Z,10.70
2023-12-14T16:26:00.671Z,10.68
2023-12-14T16:28:28.805Z,11.35
2023-12-14T16:30:55.891Z,11.98
2023-12-14T16:33:23.030Z,11.70
2023-12-14T16:35:50.190Z,13.07
2023-12-14T16:38:17.085Z,14.02
2023-12-14T16:40:44.261Z,13.25
2023-12-14T16:43:11.162Z,12.95
2023-12-14T16:45:38.029Z,12.73
2023-12-14T16:48:05.946Z,11.93
2023-12-14T16:50:32.836Z,13.50
2023-12-14T16:52:59.747Z,12.13
2023-12-14T16:55:26.690Z,13.52
2023-12-14T16:57:53.718Z,13.10
2023-12-14T17:00:20.901Z,13.50
2023-12-14T17:02:48.064Z,13.55
2023-12-14T17:05:15.091Z,13.60
2023-12-14T17:07:42.177Z,13.70
2023-12-14T17:10:09.388Z,13.20
2023-12-14T17:12:36.658Z,12.38
2023-12-14T17:15:04.978Z,14.77
2023-12-14T17:17:36.860Z,13.38
2023-12-14T17:20:04.650Z,13.60
2023-12-14T17:22:37.119Z,13.10
2023-12-14T17:27:35.805Z,12.25
2023-12-14T17:30:04.003Z,13.60
2023-12-14T17:32:31.016Z,15.65
2023-12-14T17:34:58.165Z,17.05
2023-12-14T17:37:27.209Z,16.30
2023-12-14T17:39:54.087Z,15.82
2023-12-14T17:42:24.036Z,13.70
2023-12-14T17:44:51.205Z,16.92
2023-12-14T17:47:18.099Z,16.58
2023-12-14T17:49:45.048Z,19.58
2023-12-14T17:52:16.214Z,20.92
2023-12-14T17:54:43.118Z,19.90
2023-12-14T17:57:17.465Z,19.95
2023-12-14T17:59:44.451Z,19.75
2023-12-14T18:02:11.367Z,18.85
2023-12-14T18:04:41.185Z,18.13
2023-12-14T18:07:10.296Z,17.92
2023-12-14T18:09:37.705Z,17.33
2023-12-14T18:12:04.915Z,20.13
2023-12-14T18:14:31.817Z,19.90
2023-12-14T18:16:58.800Z,18.27
2023-12-14T18:19:29.484Z,19.85
2023-12-14T18:21:56.899Z,15.88
2023-12-14T18:24:25.551Z,16.23
2023-12-14T18:26:52.569Z,15.88
2023-12-14T18:29:19.493Z,14.85
2023-12-14T18:31:46.561Z,14.10
2023-12-14T18:34:13.698Z,14.63
2023-12-14T18:36:40.854Z,13.00
2023-12-14T18:39:08.013Z,12.85
2023-12-14T18:41:35.138Z,13.48
2023-12-14T18:44:02.301Z,13.43
2023-12-14T18:46:29.963Z,13.25
2023-12-14T18:48:57.127Z,13.23
2023-12-14T18:51:25.355Z,14.05
2023-12-14T18:53:52.499Z,12.85
2023-12-14T18:56:19.643Z,12.55
2023-12-14T18:58:46.533Z,12.45
2023-12-14T19:01:14.002Z,12.80
2023-12-14T19:03:41.610Z,14.70
2023-12-14T19:06:10.502Z,16.20
2023-12-14T19:08:39.840Z,15.50
2023-12-14T19:11:15.393Z,15.60
2023-12-14T19:13:42.622Z,13.95
2023-12-14T19:16:10.564Z,13.52
2023-12-14T19:18:37.870Z,13.52
2023-12-14T19:21:07.459Z,13.63
2023-12-14T19:23:34.399Z,14.30
2023-12-14T19:26:03.327Z,12.90
2023-12-14T19:28:30.730Z,13.18
2023-12-14T19:30:58.944Z,12.25
2023-12-14T19:33:28.678Z,12.25
2023-12-14T19:35:55.981Z,12.18
2023-12-14T19:38:23.009Z,12.25
2023-12-14T19:40:49.972Z,11.60
2023-12-14T19:43:17.100Z,12.10
2023-12-14T19:45:44.581Z,13.68
2023-12-14T19:48:11.699Z,11.25
2023-12-14T19:50:39.022Z,11.05
2023-12-14T19:53:05.994Z,11.70
2023-12-14T19:55:32.905Z,10.93
2023-12-14T19:58:00.558Z,11.50
2023-12-14T20:00:28.198Z,11.43
2023-12-14T20:02:56.141Z,12.25
2023-12-14T20:05:23.231Z,14.65
2023-12-14T20:07:50.576Z,14.52
2023-12-14T20:10:17.417Z,11.75
2023-12-14T20:12:45.054Z,11.20
2023-12-14T20:15:14.573Z,11.25
2023-12-14T20:17:41.971Z,11.50
2023-12-14T20:20:12.445Z,10.88
2023-12-14T20:22:40.743Z,10.18
2023-12-14T20:25:09.461Z,10.73
2023-12-14T20:27:37.111Z,11.55
2023-12-14T20:30:06.643Z,10.45
2023-12-14T20:32:34.260Z,13.52
2023-12-14T20:35:01.332Z,13.18
2023-12-14T20:37:28.503Z,13.35
2023-12-14T20:39:57.253Z,13.40
2023-12-14T20:42:24.162Z,10.32
2023-12-14T20:44:52.717Z,11.05
2023-12-14T20:47:19.805Z,9.65
2023-12-14T20:49:46.795Z,10.25
2023-12-14T20:52:13.745Z,9.20
2023-12-14T20:54:40.776Z,10.82
2023-12-14T20:57:07.641Z,9.07
2023-12-14T20:59:34.884Z,7.90
2023-12-14T21:02:01.907Z,8.68
2023-12-14T21:04:28.857Z,7.68
2023-12-14T21:06:56.044Z,7.40
2023-12-14T21:09:22.947Z,7.90
2023-12-14T21:11:49.864Z,8.68
2023-12-14T21:14:18.448Z,7.40
2023-12-14T21:16:51.594Z,6.40
2023-12-14T21:19:19.850Z,6.60
2023-12-14T21:21:47.127Z,6.20
2023-12-14T21:24:17.879Z,6.65
2023-12-14T21:27:03.495Z,7.18
2023-12-14T21:29:30.532Z,6.32
2023-12-14T21:31:57.500Z,7.35
2023-12-14T21:34:24.412Z,7.10
2023-12-14T21:36:51.387Z,8.15
2023-12-14T21:39:18.263Z,7.25
2023-12-14T21:41:45.259Z,6.22
2023-12-14T21:44:12.610Z,6.72
2023-12-14T21:46:39.574Z,6.30
2023-12-14T21:49:14.348Z,6.93
2023-12-14T21:51:45.998Z,8.00
2023-12-14T21:54:13.517Z,7.68
2023-12-14T21:56:41.848Z,8.15
2023-12-14T21:59:09.169Z,8.27
2023-12-14T22:01:36.432Z,7.40
2023-12-14T22:04:04.751Z,5.57
2023-12-14T22:06:31.898Z,6.35
2023-12-14T22:08:58.917Z,5.82
2023-12-14T22:11:25.916Z,7.47
2023-12-14T22:13:52.909Z,7.03
2023-12-14T22:16:19.769Z,6.43
2023-12-14T22:18:46.965Z,6.43
2023-12-14T22:21:14.114Z,6.47
2023-12-14T22:23:41.135Z,6.38
2023-12-14T22:26:08.346Z,6.95
2023-12-14T22:28:35.808Z,7.20
2023-12-14T22:31:02.768Z,6.55
2023-12-14T22:33:29.761Z,6.50
2023-12-14T22:35:56.903Z,6.15
2023-12-14T22:38:24.434Z,5.95
2023-12-14T22:40:53.383Z,6.82
2023-12-14T22:43:20.736Z,6.72
2023-12-14T22:45:47.633Z,6.32
2023-12-14T22:48:15.510Z,7.15
2023-12-14T22:50:42.564Z,6.43
2023-12-14T22:53:15.869Z,6.40
2023-12-14T22:55:50.402Z,5.72
2023-12-14T22:58:18.229Z,6.38
2023-12-14T23:00:45.193Z,6.45
2023-12-14T23:03:12.218Z,6.60
2023-12-14T23:05:40.742Z,6.40
2023-12-14T23:08:07.645Z,6.47
2023-12-14T23:10:35.288Z,6.60
2023-12-14T23:13:02.264Z,6.35
2023-12-14T23:15:29.931Z,7.43
2023-12-14T23:17:57.005Z,7.15
2023-12-14T23:20:25.319Z,6.82
2023-12-14T23:22:52.400Z,7.05
2023-12-14T23:25:19.559Z,7.38
2023-12-14T23:27:46.579Z,7.82
2023-12-14T23:30:13.783Z,8.10
2023-12-14T23:32:41.188Z,8.18
2023-12-14T23:35:08.584Z,7.88
2023-12-14T23:37:36.390Z,8.45
2023-12-14T23:40:04.517Z,7.75
2023-12-14T23:42:31.504Z,9.98
2023-12-14T23:44:58.563Z,9.68
2023-12-14T23:47:26.761Z,9.68
2023-12-14T23:49:53.664Z,9.88
2023-12-14T23:52:20.733Z,11.48
2023-12-14T23:54:47.682Z,11.70
2023-12-14T23:57:14.658Z,12.88
2023-12-14T23:59:41.639Z,13.18
